createdAt,value
2019-05-11T00:00:16.981Z,98.47
2019-05-11T00:02:49.196Z,91.63
2019-05-11T00:05:21.167Z,97.40
2019-05-11T00:07:53.208Z,92.70
2019-05-11T00:10:25.262Z,90.17
2019-05-11T00:12:57.255Z,91.03
2019-05-11T00:15:29.233Z,89.47
2019-05-11T00:18:01.329Z,85.30
2019-05-11T00:20:33.492Z,77.00
2019-05-11T00:23:05.515Z,69.80
2019-05-11T00:25:37.470Z,72.03
2019-05-11T00:28:09.632Z,71.90
2019-05-11T00:30:41.765Z,69.53
2019-05-11T00:33:13.754Z,66.43
2019-05-11T00:35:45.856Z,69.10
2019-05-11T00:38:17.831Z,70.40
2019-05-11T00:40:50.413Z,74.37
2019-05-11T00:43:22.429Z,72.10
2019-05-11T00:45:54.486Z,73.87
2019-05-11T00:48:26.467Z,70.60
2019-05-11T00:50:58.433Z,70.57
2019-05-11T00:53:30.489Z,64.73
2019-05-11T00:56:02.728Z,72.07
2019-05-11T00:58:36.532Z,75.20
2019-05-11T01:01:08.688Z,76.33
2019-05-11T01:03:40.697Z,68.10
2019-05-11T01:06:12.882Z,70.17
2019-05-11T01:08:44.842Z,72.23
2019-05-11T01:11:16.827Z,74.43
2019-05-11T01:13:48.869Z,75.20
2019-05-11T01:16:21.224Z,80.17
2019-05-11T01:18:53.175Z,70.73
2019-05-11T01:21:25.172Z,74.80
2019-05-11T01:23:58.937Z,63.37
2019-05-11T01:26:31.235Z,65.43
2019-05-11T01:29:03.333Z,68.53
2019-05-11T01:31:35.952Z,67.60
2019-05-11T01:34:07.939Z,77.07
2019-05-11T01:36:40.235Z,68.70
2019-05-11T01:39:12.246Z,62.40
2019-05-11T01:41:44.223Z,60.63
2019-05-11T01:44:16.223Z,67.37
2019-05-11T01:46:48.207Z,59.33
2019-05-11T01:49:20.249Z,63.33
2019-05-11T01:51:52.243Z,51.43
2019-05-11T01:54:25.713Z,51.87
2019-05-11T01:56:57.674Z,46.93
2019-05-11T01:59:30.245Z,48.43
2019-05-11T02:02:02.211Z,51.17
2019-05-11T02:04:34.165Z,55.07
2019-05-11T02:07:06.279Z,54.33
2019-05-11T02:09:38.235Z,61.80
2019-05-11T02:12:10.285Z,66.30
2019-05-11T02:14:42.867Z,62.97
2019-05-11T02:17:14.836Z,62.50
2019-05-11T02:19:46.926Z,63.07
2019-05-11T02:22:19.002Z,63.87
2019-05-11T02:24:51.322Z,69.00
2019-05-11T02:27:23.318Z,64.10
2019-05-11T02:29:55.446Z,65.50
2019-05-11T02:32:28.869Z,63.87
2019-05-11T02:35:02.046Z,64.37
2019-05-11T02:37:35.135Z,62.30
2019-05-11T02:40:08.014Z,66.17
2019-05-11T02:42:40.375Z,61.37
2019-05-11T02:45:14.115Z,62.73
2019-05-11T02:47:46.102Z,59.93
2019-05-11T02:50:18.094Z,69.37
2019-05-11T02:52:50.334Z,67.20
2019-05-11T02:55:22.478Z,65.10
2019-05-11T02:57:54.421Z,62.07
2019-05-11T03:00:42.911Z,59.40
2019-05-11T03:03:15.086Z,54.77
2019-05-11T03:05:47.063Z,56.03
2019-05-11T03:08:19.040Z,55.13
2019-05-11T03:10:51.069Z,53.53
2019-05-11T03:13:23.064Z,55.60
2019-05-11T03:15:55.087Z,53.80
2019-05-11T03:18:27.075Z,49.93
2019-05-11T03:20:59.055Z,52.10
2019-05-11T03:23:31.431Z,45.13
2019-05-11T03:26:03.729Z,47.77
2019-05-11T03:28:36.111Z,41.33
2019-05-11T03:31:08.145Z,43.60
2019-05-11T03:33:40.555Z,46.00
2019-05-11T03:36:12.657Z,40.63
2019-05-11T03:38:44.851Z,40.50
2019-05-11T03:41:16.810Z,41.47
2019-05-11T03:43:48.772Z,42.40
2019-05-11T03:46:22.298Z,43.17
2019-05-11T03:48:54.266Z,46.10
2019-05-11T03:51:26.225Z,40.00
2019-05-11T03:53:58.222Z,40.93
2019-05-11T03:56:30.244Z,42.87
2019-05-11T03:59:02.394Z,42.17
2019-05-11T04:01:34.591Z,44.33
2019-05-11T04:04:06.561Z,45.10
2019-05-11T04:06:38.531Z,39.90
2019-05-11T04:09:10.865Z,38.27
2019-05-11T04:11:44.156Z,41.10
2019-05-11T04:14:16.221Z,41.57
2019-05-11T04:16:48.388Z,43.73
2019-05-11T04:19:20.644Z,41.33
2019-05-11T04:21:52.742Z,41.23
2019-05-11T04:24:24.729Z,37.37
2019-05-11T04:26:56.821Z,37.20
2019-05-11T04:29:28.872Z,39.87
2019-05-11T04:32:00.811Z,40.93
2019-05-11T04:34:34.271Z,43.27
2019-05-11T04:37:06.254Z,37.17
2019-05-11T04:39:38.431Z,41.23
2019-05-11T04:42:10.696Z,40.73
2019-05-11T04:44:42.719Z,34.87
2019-05-11T04:47:14.693Z,36.33
2019-05-11T04:49:46.872Z,29.77
2019-05-11T04:52:18.870Z,30.60
2019-05-11T04:54:51.100Z,30.07
2019-05-11T04:57:23.127Z,26.90
2019-05-11T04:59:55.162Z,24.73
2019-05-11T05:02:27.403Z,28.37
2019-05-11T05:04:59.538Z,20.20
2019-05-11T05:07:31.583Z,20.40
2019-05-11T05:10:04.662Z,24.13
2019-05-11T05:12:36.654Z,23.13
2019-05-11T05:15:08.918Z,24.77
2019-05-11T05:17:40.890Z,26.77
2019-05-11T05:20:13.648Z,19.23
2019-05-11T05:22:45.728Z,21.17
2019-05-11T05:25:17.841Z,18.52
2019-05-11T05:27:50.214Z,19.63
2019-05-11T05:30:22.238Z,19.27
2019-05-11T05:32:54.253Z,14.85
2019-05-11T05:35:27.673Z,14.87
2019-05-11T05:38:00.012Z,16.25
2019-05-11T05:40:31.934Z,14.33
2019-05-11T05:43:06.450Z,13.95
2019-05-11T05:45:38.648Z,14.28
2019-05-11T05:48:11.118Z,13.75
2019-05-11T05:50:43.117Z,15.43
2019-05-11T05:53:16.170Z,16.90
2019-05-11T05:55:49.752Z,15.45
2019-05-11T05:58:21.735Z,14.70
2019-05-11T06:00:56.690Z,16.15
2019-05-11T06:03:28.822Z,16.50
2019-05-11T06:06:01.233Z,15.32
2019-05-11T06:08:33.298Z,14.70
2019-05-11T06:11:05.351Z,14.13
2019-05-11T06:13:44.989Z,13.43
2019-05-11T06:16:12.339Z,13.08
2019-05-11T06:18:44.298Z,11.60
2019-05-11T06:21:16.307Z,15.35
2019-05-11T06:23:48.319Z,14.98
2019-05-11T06:26:20.370Z,11.75
2019-05-11T06:28:52.345Z,11.53
2019-05-11T06:31:24.457Z,9.45
2019-05-11T06:33:56.524Z,8.70
2019-05-11T06:36:28.510Z,8.83
2019-05-11T06:39:00.689Z,7.60
2019-05-11T06:41:32.850Z,8.50
2019-05-11T06:44:05.283Z,7.22
2019-05-11T06:46:37.298Z,8.55
2019-05-11T06:49:09.347Z,7.30
2019-05-11T06:51:41.329Z,6.80
2019-05-11T06:54:13.345Z,5.15
2019-05-11T06:56:45.332Z,5.33
2019-05-11T06:59:17.364Z,5.58
2019-05-11T07:01:49.345Z,4.60
2019-05-11T07:04:21.351Z,5.50
2019-05-11T07:06:53.309Z,4.22
2019-05-11T07:09:25.292Z,5.47
2019-05-11T07:11:57.345Z,23.85
2019-05-11T07:14:29.486Z,12.03
2019-05-11T07:17:01.451Z,8.65
2019-05-11T07:19:33.563Z,5.25
2019-05-11T07:22:05.560Z,4.90
2019-05-11T07:24:37.562Z,5.87
2019-05-11T07:27:10.099Z,6.30
2019-05-11T07:29:42.105Z,5.65
2019-05-11T07:32:21.919Z,12.73
2019-05-11T07:34:48.699Z,6.10
2019-05-11T07:37:24.219Z,8.63
2019-05-11T07:39:55.009Z,16.30
2019-05-11T07:42:28.553Z,8.98
2019-05-11T07:45:00.881Z,8.15
2019-05-11T07:47:32.847Z,6.35
2019-05-11T07:50:08.080Z,7.20
2019-05-11T07:52:39.942Z,7.25
2019-05-11T07:55:11.884Z,6.58
2019-05-11T07:57:43.946Z,5.12
2019-05-11T08:00:18.587Z,6.30
2019-05-11T08:02:50.558Z,7.37
2019-05-11T08:05:22.521Z,6.62
2019-05-11T08:07:54.470Z,5.90
2019-05-11T08:10:28.176Z,7.12
2019-05-11T08:13:00.705Z,7.85
2019-05-11T08:15:32.777Z,7.90
2019-05-11T08:18:04.975Z,11.00
2019-05-11T08:20:38.499Z,9.55
2019-05-11T08:23:10.801Z,10.05
2019-05-11T08:25:42.737Z,10.68
2019-05-11T08:28:14.684Z,10.18
2019-05-11T08:30:48.658Z,12.35
2019-05-11T08:33:20.420Z,5.40
2019-05-11T08:35:52.428Z,4.75
2019-05-11T08:38:24.369Z,5.15
2019-05-11T08:40:58.841Z,6.65
2019-05-11T08:43:30.419Z,6.22
2019-05-11T08:46:02.385Z,5.95
2019-05-11T08:48:34.392Z,8.20
2019-05-11T08:51:08.450Z,10.75
2019-05-11T08:53:40.171Z,11.90
2019-05-11T08:56:13.355Z,14.53
2019-05-11T08:58:45.477Z,9.00
2019-05-11T09:01:18.368Z,14.98
2019-05-11T09:03:50.601Z,10.30
2019-05-11T09:06:22.589Z,8.00
2019-05-11T09:08:54.548Z,10.40
2019-05-11T09:11:28.336Z,10.68
2019-05-11T09:14:00.881Z,10.32
2019-05-11T09:16:33.089Z,14.75
2019-05-11T09:19:05.107Z,15.43
2019-05-11T09:21:38.286Z,6.95
2019-05-11T09:24:10.952Z,5.67
2019-05-11T09:26:42.941Z,4.20
2019-05-11T09:29:14.971Z,5.87
2019-05-11T09:31:48.709Z,9.00
2019-05-11T09:34:20.791Z,15.90
2019-05-11T09:36:52.857Z,16.97
2019-05-11T09:39:24.843Z,9.98
2019-05-11T09:41:58.479Z,15.65
2019-05-11T09:44:32.704Z,15.72
2019-05-11T09:47:04.704Z,15.50
2019-05-11T09:49:46.586Z,20.70
2019-05-11T09:52:10.367Z,31.48
2019-05-11T09:54:42.296Z,45.73
2019-05-11T09:57:14.340Z,59.98
2019-05-11T09:59:47.755Z,76.22
2019-05-11T10:02:21.146Z,96.25
2019-05-11T10:04:53.322Z,119.87
2019-05-11T10:07:25.316Z,73.42
2019-05-11T10:09:58.279Z,51.18
2019-05-11T10:12:30.640Z,45.70
2019-05-11T10:15:02.633Z,30.90
2019-05-11T10:17:34.641Z,40.58
2019-05-11T10:20:09.167Z,58.70
2019-05-11T10:22:41.256Z,77.95
2019-05-11T10:25:13.454Z,56.90
2019-05-11T10:27:45.414Z,13.05
2019-05-11T10:30:18.633Z,3.62
2019-05-11T10:32:51.104Z,4.03
2019-05-11T10:35:23.040Z,4.90
2019-05-11T10:37:55.016Z,4.30
2019-05-11T10:40:28.118Z,2.92
2019-05-11T10:43:00.587Z,4.25
2019-05-11T10:45:32.626Z,3.10
2019-05-11T10:48:04.855Z,5.67
2019-05-11T10:50:38.038Z,9.60
2019-05-11T10:53:12.246Z,12.65
2019-05-11T10:55:44.297Z,17.35
2019-05-11T10:58:18.386Z,23.87
2019-05-11T11:00:50.735Z,28.77
2019-05-11T11:03:24.219Z,35.45
2019-05-11T11:05:58.038Z,40.28
2019-05-11T11:08:31.493Z,23.42
2019-05-11T11:11:03.551Z,7.15
2019-05-11T11:13:35.609Z,4.08
2019-05-11T11:16:08.412Z,5.90
2019-05-11T11:18:40.748Z,6.53
2019-05-11T11:21:12.841Z,5.12
2019-05-11T11:23:44.913Z,21.65
2019-05-11T11:26:18.492Z,9.38
2019-05-11T11:28:51.113Z,5.55
2019-05-11T11:31:23.270Z,2.83
2019-05-11T11:33:58.226Z,4.03
2019-05-11T11:36:29.062Z,3.55
2019-05-11T11:39:02.326Z,3.72
2019-05-11T11:41:37.877Z,2.65
2019-05-11T11:44:10.197Z,4.53
2019-05-11T11:46:52.155Z,2.60
2019-05-11T11:49:18.797Z,3.50
2019-05-11T11:51:51.147Z,8.75
2019-05-11T11:54:23.215Z,7.58
2019-05-11T11:56:55.364Z,4.78
2019-05-11T11:59:28.677Z,4.80
2019-05-11T12:02:01.336Z,7.03
2019-05-11T12:04:35.164Z,5.42
2019-05-11T12:07:08.491Z,4.53
2019-05-11T12:09:40.978Z,3.60
2019-05-11T12:12:12.932Z,2.67
2019-05-11T12:14:45.018Z,4.03
2019-05-11T12:17:18.173Z,4.67
2019-05-11T12:19:50.472Z,4.12
2019-05-11T12:22:22.434Z,4.28
2019-05-11T12:24:54.585Z,4.67
2019-05-11T12:27:28.682Z,3.50
2019-05-11T12:30:01.346Z,2.87
2019-05-11T12:32:39.885Z,7.60
2019-05-11T12:35:12.130Z,5.58
2019-05-11T12:37:44.213Z,5.60
2019-05-11T12:40:18.003Z,3.42
2019-05-11T12:42:51.393Z,4.90
2019-05-11T12:45:23.830Z,3.85
2019-05-11T12:47:58.558Z,3.22
2019-05-11T12:50:30.116Z,8.00
2019-05-11T12:53:02.240Z,6.70
2019-05-11T12:55:34.210Z,7.20
2019-05-11T12:58:08.571Z,5.67
2019-05-11T13:00:40.788Z,3.42
2019-05-11T13:03:12.993Z,3.92
2019-05-11T13:05:45.090Z,3.40
2019-05-11T13:08:18.492Z,2.93
2019-05-11T13:10:50.998Z,3.83
2019-05-11T13:13:23.092Z,3.83
2019-05-11T13:15:55.115Z,5.30
2019-05-11T13:18:27.922Z,3.87
2019-05-11T13:21:00.181Z,4.80
2019-05-11T13:23:32.155Z,3.47
2019-05-11T13:26:04.156Z,4.17
2019-05-11T13:28:37.816Z,3.22
2019-05-11T13:31:10.358Z,3.75
2019-05-11T13:33:42.364Z,3.08
2019-05-11T13:36:14.356Z,3.15
2019-05-11T13:38:48.345Z,4.55
2019-05-11T13:41:21.566Z,4.07
2019-05-11T13:43:53.742Z,4.00
2019-05-11T13:46:28.332Z,4.65
2019-05-11T13:49:00.549Z,4.17
2019-05-11T13:51:32.548Z,6.90
2019-05-11T13:54:04.574Z,6.12
2019-05-11T13:56:37.931Z,3.83
2019-05-11T13:59:10.960Z,3.57
2019-05-11T14:01:43.145Z,2.90
2019-05-11T14:04:17.899Z,3.53
2019-05-11T14:06:48.841Z,5.00
2019-05-11T14:09:21.388Z,3.90
2019-05-11T14:11:53.424Z,6.10
2019-05-11T14:14:25.697Z,3.60
2019-05-11T14:16:58.865Z,4.13
2019-05-11T14:19:31.553Z,3.73
2019-05-11T14:22:03.651Z,6.07
2019-05-11T14:24:37.110Z,5.57
2019-05-11T14:27:09.364Z,5.13
2019-05-11T14:29:41.393Z,9.07
2019-05-11T14:32:13.433Z,11.57
2019-05-11T14:34:45.627Z,5.30
2019-05-11T14:37:18.064Z,5.97
2019-05-11T14:39:50.966Z,5.93
2019-05-11T14:42:23.053Z,3.97
2019-05-11T14:44:55.054Z,3.53
2019-05-11T14:47:28.298Z,4.50
2019-05-11T14:50:00.752Z,3.93
2019-05-11T14:52:32.757Z,3.12
2019-05-11T14:55:05.122Z,4.47
2019-05-11T14:57:39.626Z,4.80
2019-05-11T15:00:12.313Z,3.60
2019-05-11T15:02:49.163Z,3.60
2019-05-11T15:05:22.714Z,2.73
2019-05-11T15:07:54.626Z,2.03
2019-05-11T15:10:27.715Z,4.33
2019-05-11T15:13:00.289Z,3.83
2019-05-11T15:15:32.260Z,3.33
2019-05-11T15:18:04.347Z,4.27
2019-05-11T15:20:38.724Z,9.73
2019-05-11T15:23:11.195Z,13.07
2019-05-11T15:25:43.146Z,7.20
2019-05-11T15:28:17.937Z,4.97
2019-05-11T15:30:49.265Z,5.47
2019-05-11T15:33:21.360Z,4.10
2019-05-11T15:35:53.370Z,6.10
2019-05-11T15:38:25.441Z,7.63
2019-05-11T15:40:57.914Z,6.00
2019-05-11T15:43:30.447Z,5.93
2019-05-11T15:46:02.530Z,3.87
2019-05-11T15:48:34.475Z,3.80
2019-05-11T15:51:08.107Z,4.07
2019-05-11T15:53:40.568Z,4.87
2019-05-11T15:56:12.531Z,5.73
2019-05-11T15:58:44.642Z,4.40
2019-05-11T16:01:18.551Z,3.43
2019-05-11T16:03:50.409Z,4.87
2019-05-11T16:06:22.421Z,3.90
2019-05-11T16:08:54.449Z,3.80
2019-05-11T16:11:28.394Z,5.53
2019-05-11T16:14:00.878Z,3.33
2019-05-11T16:16:33.034Z,6.10
2019-05-11T16:19:11.761Z,22.40
2019-05-11T16:21:38.931Z,11.73
2019-05-11T16:24:10.941Z,12.10
2019-05-11T16:26:42.921Z,4.83
2019-05-11T16:29:14.943Z,5.33
2019-05-11T16:31:48.275Z,4.23
2019-05-11T16:34:20.729Z,8.13
2019-05-11T16:36:52.769Z,3.50
2019-05-11T16:39:24.742Z,4.10
2019-05-11T16:41:57.830Z,5.17
2019-05-11T16:44:30.044Z,4.13
2019-05-11T16:47:02.194Z,3.37
2019-05-11T16:49:34.193Z,3.30
2019-05-11T16:52:07.774Z,4.47
2019-05-11T16:54:40.456Z,14.03
2019-05-11T16:57:12.545Z,15.73
2019-05-11T16:59:44.525Z,6.87
2019-05-11T17:02:18.649Z,8.03
2019-05-11T17:04:50.765Z,9.37
2019-05-11T17:07:23.029Z,10.27
2019-05-11T17:09:55.087Z,6.60
2019-05-11T17:12:28.982Z,6.37
2019-05-11T17:15:00.955Z,5.17
2019-05-11T17:17:32.946Z,5.43
2019-05-11T17:20:05.283Z,5.07
2019-05-11T17:22:39.354Z,7.00
2019-05-11T17:25:11.313Z,5.90
2019-05-11T17:27:43.359Z,5.87
2019-05-11T17:30:15.453Z,6.80
2019-05-11T17:32:49.311Z,5.77
2019-05-11T17:35:21.278Z,6.33
2019-05-11T17:37:53.223Z,5.27
2019-05-11T17:40:25.325Z,7.83
2019-05-11T17:42:58.498Z,5.90
2019-05-11T17:45:31.086Z,7.50
2019-05-11T17:48:03.205Z,6.53
2019-05-11T17:50:35.453Z,8.00
2019-05-11T17:53:07.523Z,7.60
2019-05-11T17:55:39.580Z,16.07
2019-05-11T17:58:11.731Z,23.93
2019-05-11T18:00:43.745Z,26.60
2019-05-11T18:03:15.767Z,17.67
2019-05-11T18:05:48.556Z,15.97
2019-05-11T18:08:20.969Z,10.78
2019-05-11T18:10:52.965Z,11.80
2019-05-11T18:13:24.999Z,11.47
2019-05-11T18:15:57.782Z,19.60
2019-05-11T18:18:30.543Z,12.73
2019-05-11T18:21:02.506Z,13.27
2019-05-11T18:23:34.557Z,12.73
2019-05-11T18:26:08.644Z,14.63
2019-05-11T18:28:40.471Z,17.70
2019-05-11T18:31:12.593Z,16.63
2019-05-11T18:33:44.683Z,15.23
2019-05-11T18:36:18.302Z,14.73
2019-05-11T18:38:50.545Z,16.13
2019-05-11T18:41:22.507Z,16.90
2019-05-11T18:43:54.559Z,17.30
2019-05-11T18:46:27.874Z,21.13
2019-05-11T18:49:00.446Z,18.87
2019-05-11T18:51:32.472Z,25.50
2019-05-11T18:54:04.592Z,30.30
2019-05-11T18:56:38.170Z,17.23
2019-05-11T18:59:11.445Z,29.03
2019-05-11T19:01:43.507Z,43.67
2019-05-11T19:04:18.205Z,62.27
2019-05-11T19:06:49.499Z,47.70
2019-05-11T19:09:21.565Z,34.57
2019-05-11T19:11:53.543Z,19.63
2019-05-11T19:14:28.000Z,30.70
2019-05-11T19:16:59.405Z,35.67
2019-05-11T19:19:31.884Z,41.53
2019-05-11T19:22:03.885Z,49.00
2019-05-11T19:24:38.161Z,26.07
2019-05-11T19:27:09.949Z,34.50
2019-05-11T19:29:41.986Z,33.13
2019-05-11T19:32:14.007Z,24.57
2019-05-11T19:34:47.817Z,22.50
2019-05-11T19:37:20.072Z,25.23
2019-05-11T19:39:52.160Z,32.73
2019-05-11T19:42:24.231Z,29.30
2019-05-11T19:44:56.375Z,27.43
2019-05-11T19:47:28.469Z,26.07
2019-05-11T19:50:00.431Z,25.23
2019-05-11T19:52:32.416Z,32.70
2019-05-11T19:55:04.540Z,39.47
2019-05-11T19:57:38.607Z,40.63
2019-05-11T20:00:12.306Z,86.40
2019-05-11T20:02:44.287Z,39.67
2019-05-11T20:05:18.497Z,27.57
2019-05-11T20:07:50.580Z,31.20
2019-05-11T20:10:22.755Z,36.30
2019-05-11T20:12:54.745Z,30.70
2019-05-11T20:15:27.442Z,25.40
2019-05-11T20:17:59.459Z,40.30
2019-05-11T20:20:31.514Z,41.50
2019-05-11T20:23:03.540Z,22.97
2019-05-11T20:25:37.805Z,26.17
2019-05-11T20:28:09.335Z,21.57
2019-05-11T20:30:41.485Z,27.87
2019-05-11T20:33:13.545Z,22.33
2019-05-11T20:35:45.720Z,26.17
2019-05-11T20:38:18.756Z,24.87
2019-05-11T20:40:51.334Z,20.73
2019-05-11T20:43:23.380Z,23.53
2019-05-11T20:45:56.981Z,20.97
2019-05-11T20:48:28.971Z,37.80
2019-05-11T20:51:01.377Z,26.90
2019-05-11T20:53:33.368Z,26.30
2019-05-11T20:56:05.396Z,28.87
2019-05-11T20:58:59.438Z,26.00
2019-05-11T21:01:30.897Z,26.87
2019-05-11T21:04:03.021Z,31.77
2019-05-11T21:06:35.241Z,26.47
2019-05-11T21:09:08.562Z,33.33
2019-05-11T21:11:40.542Z,39.90
2019-05-11T21:14:12.501Z,35.53
2019-05-11T21:16:44.522Z,43.90
2019-05-11T21:19:18.755Z,33.33
2019-05-11T21:21:53.852Z,31.37
2019-05-11T21:24:25.403Z,33.07
2019-05-11T21:26:58.484Z,30.23
2019-05-11T21:29:31.478Z,30.67
2019-05-11T21:32:03.681Z,24.17
2019-05-11T21:34:38.184Z,25.60
2019-05-11T21:37:09.297Z,30.23
2019-05-11T21:39:41.349Z,25.63
2019-05-11T21:42:13.453Z,23.37
2019-05-11T21:44:45.404Z,23.23
2019-05-11T21:47:18.271Z,25.73
2019-05-11T21:49:50.534Z,23.73
2019-05-11T21:52:22.558Z,23.67
2019-05-11T21:54:54.687Z,24.10
2019-05-11T21:57:27.885Z,21.03
2019-05-11T22:00:00.657Z,22.00
2019-05-11T22:02:32.894Z,21.43
2019-05-11T22:05:05.183Z,24.17
2019-05-11T22:07:38.958Z,20.40
2019-05-11T22:10:11.740Z,20.40
2019-05-11T22:12:45.593Z,21.97
2019-05-11T22:15:17.817Z,22.73
2019-05-11T22:17:49.873Z,24.43
2019-05-11T22:20:21.929Z,26.47
2019-05-11T22:22:53.918Z,23.13
2019-05-11T22:25:25.944Z,23.40
2019-05-11T22:27:57.973Z,25.07
2019-05-11T22:30:30.637Z,23.10
2019-05-11T22:33:02.825Z,27.80
2019-05-11T22:35:35.000Z,24.03
2019-05-11T22:38:08.408Z,22.27
2019-05-11T22:40:40.527Z,21.90
2019-05-11T22:43:12.615Z,21.70
2019-05-11T22:45:44.727Z,22.67
2019-05-11T22:48:16.705Z,22.77
2019-05-11T22:50:50.557Z,22.73
2019-05-11T22:53:22.417Z,22.37
2019-05-11T22:55:54.394Z,22.67
2019-05-11T22:58:28.271Z,24.30
2019-05-11T23:01:00.287Z,21.80
2019-05-11T23:03:32.275Z,24.23
2019-05-11T23:06:04.241Z,22.23
2019-05-11T23:08:36.185Z,20.33
2019-05-11T23:11:10.556Z,25.40
2019-05-11T23:13:42.289Z,24.50
2019-05-11T23:16:14.384Z,24.47
2019-05-11T23:18:48.083Z,22.87
2019-05-11T23:21:20.683Z,22.57
2019-05-11T23:23:52.790Z,20.20
2019-05-11T23:26:24.906Z,24.10
2019-05-11T23:28:57.973Z,22.77
2019-05-11T23:31:30.487Z,18.57
2019-05-11T23:34:02.489Z,20.13
2019-05-11T23:36:34.435Z,18.50
2019-05-11T23:39:09.091Z,20.90
2019-05-11T23:41:41.353Z,21.83
2019-05-11T23:44:13.451Z,25.47
2019-05-11T23:46:47.706Z,23.07
2019-05-11T23:49:19.246Z,21.90
2019-05-11T23:51:51.427Z,21.50
2019-05-11T23:54:23.364Z,22.53
2019-05-11T23:56:55.449Z,26.47
2019-05-11T23:59:27.530Z,22.47
